This is the latest recevied weather packets stored in our database for station/object N2WH. If no packets are shown the sender has not sent any weather packets the latest 1 day(s).
| Time | Temp. | Humidity | Pressure | Rain* | Wind** | Luminosity | Snow |
|---|---|---|---|---|---|---|---|
| 1777977639 | 13.89° C | 78% | 1012 hPa | 0 mm | 0 m/s | 7 W/m² | - |
| 1777977335 | 13.89° C | 78% | 1012 hPa | 0 mm | 0 m/s | 12 W/m² | - |
| 1777977033 | 14.44° C | 75% | 1012.1 hPa | 0 mm | 0 m/s | 17 W/m² | - |
| 1777976730 | 13.89° C | 73% | 1012.1 hPa | 0 mm | 0.45 m/s, 154° | 21 W/m² | - |
| 1777976427 | 13.89° C | 74% | 1011.7 hPa | 0 mm | 0 m/s | 22 W/m² | - |
| 1777976126 | 13.89° C | 74% | 1011.7 hPa | 0 mm | 0 m/s | 20 W/m² | - |
| 1777975822 | 13.33° C | 76% | 1011.5 hPa | 0 mm | 0 m/s | 16 W/m² | - |
| 1777975519 | 12.78° C | 77% | 1011.4 hPa | 0 mm | 0 m/s | 7 W/m² | - |
| 1777975216 | 13.33° C | 75% | 1011.4 hPa | 0 mm | 0 m/s | 3 W/m² | - |
| 1777974912 | 13.33° C | 76% | 1011.4 hPa | 0 mm | 0 m/s | 1 W/m² | - |
| 1777974608 | 12.78° C | 77% | 1011.2 hPa | 0 mm | 0 m/s | 0 W/m² | - |
| 1777974305 | 12.22° C | 79% | 1011.4 hPa | 0 mm | 0 m/s | 0 W/m² | - |
| 1777974001 | 12.22° C | 80% | 1011.4 hPa | 0 mm | 0 m/s | 0 W/m² | - |
| 1777973698 | 12.22° C | 79% | 1011.4 hPa | 0 mm | 0 m/s | 0 W/m² | - |
| 1777973395 | 11.67° C | 81% | 1011.3 hPa | 0 mm | 0 m/s | 0 W/m² | - |
| 1777973092 | 11.67° C | 81% | 1011.1 hPa | 0 mm | 0 m/s | 0 W/m² | - |
| 1777972790 | 11.67° C | 81% | 1010.9 hPa | 0 mm | 0 m/s | 0 W/m² | - |
| 1777972487 | 11.67° C | 81% | 1011.1 hPa | 0 mm | 0 m/s | 0 W/m² | - |
| 1777972185 | 11.67° C | 80% | 1011 hPa | 0 mm | 0 m/s | 0 W/m² | - |
| 1777971883 | 11.67° C | 81% | 1011 hPa | 0 mm | 0 m/s | 0 W/m² | - |
| 1777971580 | 11.67° C | 81% | 1010.9 hPa | 0 mm | 0 m/s | 0 W/m² | - |
| 1777971278 | 11.67° C | 81% | 1010.9 hPa | 0 mm | 0 m/s | 0 W/m² | - |
| 1777970976 | 11.67° C | 80% | 1010.9 hPa | 0 mm | 0 m/s | 0 W/m² | - |
| 1777970674 | 11.67° C | 80% | 1011 hPa | 0 mm | 0 m/s | 0 W/m² | - |
| 1777970372 | 11.67° C | 80% | 1011 hPa | 0 mm | 0 m/s | 0 W/m² | - |
* Rain latest hour (hover to see other rain measurements)
** Current wind speed in m/s (hover to see current wind gust speed)